Terminal Aerodrome Forecast
Issued by NWS Des Moines, IA

Home | Current Version | Previous Version | Text Only | Print | Product List | Glossary On
Versions: 1 2 3 4 5 6 7 8 9 10 11 12 13 14 15 16 17 18 19 20 21 22 23 24 25 26 27 28 29 30 31 32
000
FTUS43 KDMX 191123
TAFALO
TAF
KALO 191123Z 1912/2012 14006KT P6SM VCSH SCT010 BKN050
      TEMPO 1912/1914 4SM BR SCT008 BKN018 OVC035
     FM192000 32010G17KT P6SM SHRA SCT020 BKN040
     FM200600 31014G20KT P6SM SCT050 BKN100=

USA.gov is the U.S. government's official web portal to all federal, state and local government web resources and services.